Terminal Aerodrome Forecast
Issued by NWS Atlanta, GA

Current Version | Previous Version | Text Only | Print | Product List | Glossary On
Versions: 1 2 3 4 5 6 7 8 9 10 11 12 13 14 15 16 17 18 19 20 21 22 23 24 25 26 27 28 29 30 31 32 33 34
000
FTUS42 KFFC 031538 AAA
TAFMCN
TAF AMD
KMCN 031538Z 0316/0412 25012G18KT P6SM SCT025 BKN050
     FM031700 26014G20KT P6SM VCTS SCT025CB BKN040
      TEMPO 0317/0319 VRB15G35KT 3SM TSRA BKN025CB
     FM040100 27008KT P6SM SCT020 BKN040
     FM040600 26009KT P6SM OVC060=

USA.gov is the U.S. government's official web portal to all federal, state and local government web resources and services.